createdAt,value
2017-10-25T00:02:01.612Z,90.63
2017-10-25T00:04:29.337Z,90.57
2017-10-25T00:06:57.041Z,90.89
2017-10-25T00:09:24.789Z,90.81
2017-10-25T00:11:52.537Z,91.02
2017-10-25T00:14:20.317Z,90.92
2017-10-25T00:16:48.055Z,90.90
2017-10-25T00:19:15.757Z,90.85
2017-10-25T00:21:43.657Z,90.85
2017-10-25T00:24:11.471Z,90.83
2017-10-25T00:26:39.226Z,90.97
2017-10-25T00:29:07.038Z,91.20
2017-10-25T00:31:34.743Z,91.41
2017-10-25T00:34:02.500Z,91.83
2017-10-25T00:36:30.285Z,91.77
2017-10-25T00:38:58.051Z,91.69
2017-10-25T00:41:25.877Z,91.62
2017-10-25T00:43:53.894Z,91.76
2017-10-25T00:46:21.660Z,92.01
2017-10-25T00:48:49.321Z,91.92
2017-10-25T00:51:17.062Z,92.04
2017-10-25T00:53:44.833Z,92.33
2017-10-25T00:56:12.648Z,92.22
2017-10-25T00:58:40.371Z,92.23
2017-10-25T01:01:08.177Z,92.18
2017-10-25T01:03:35.923Z,92.39
2017-10-25T01:06:03.608Z,92.18
2017-10-25T01:08:31.408Z,91.93
2017-10-25T01:10:59.111Z,91.42
2017-10-25T01:13:27.097Z,91.34
2017-10-25T01:15:54.844Z,91.46
2017-10-25T01:18:22.540Z,91.49
2017-10-25T01:20:50.397Z,91.37
2017-10-25T01:23:18.159Z,91.21
2017-10-25T01:25:45.970Z,91.24
2017-10-25T01:28:13.760Z,91.41
2017-10-25T01:30:41.556Z,91.46
2017-10-25T01:33:09.339Z,91.43
2017-10-25T01:35:37.053Z,91.56
2017-10-25T01:38:05.187Z,91.61
2017-10-25T01:40:32.969Z,91.53
2017-10-25T01:43:00.733Z,91.43
2017-10-25T01:45:28.514Z,91.21
2017-10-25T01:47:56.365Z,91.24
2017-10-25T01:50:24.253Z,91.04
2017-10-25T01:52:52.060Z,91.96
2017-10-25T01:55:19.847Z,92.13
2017-10-25T01:57:47.650Z,92.09
2017-10-25T02:00:15.402Z,92.35
2017-10-25T02:02:43.178Z,92.70
2017-10-25T02:05:10.881Z,92.82
2017-10-25T02:07:38.688Z,93.11
2017-10-25T02:10:06.449Z,93.08
2017-10-25T02:12:34.173Z,92.80
2017-10-25T02:15:01.899Z,92.68
2017-10-25T02:17:29.672Z,92.81
2017-10-25T02:19:57.374Z,92.28
2017-10-25T02:22:25.138Z,91.74
2017-10-25T02:24:52.937Z,91.78
2017-10-25T02:27:21.882Z,91.79
2017-10-25T02:29:49.554Z,92.24
2017-10-25T02:32:17.323Z,92.30
2017-10-25T02:34:45.071Z,92.35
2017-10-25T02:37:12.840Z,92.04
2017-10-25T02:39:40.575Z,92.15
2017-10-25T02:42:08.307Z,91.92
2017-10-25T02:44:35.979Z,92.21
2017-10-25T02:47:03.698Z,92.70
2017-10-25T02:49:31.369Z,93.01
2017-10-25T02:51:59.134Z,92.76
2017-10-25T02:54:26.912Z,92.71
2017-10-25T02:56:55.224Z,92.30
2017-10-25T02:59:22.920Z,92.40
2017-10-25T03:01:50.621Z,92.25
2017-10-25T03:04:18.360Z,92.57
2017-10-25T03:06:46.081Z,92.31
2017-10-25T03:09:13.833Z,91.91
2017-10-25T03:11:42.402Z,91.93
2017-10-25T03:14:10.158Z,91.76
2017-10-25T03:16:37.910Z,91.74
2017-10-25T03:19:05.581Z,92.10
2017-10-25T03:21:33.371Z,92.21
2017-10-25T03:24:01.163Z,92.71
2017-10-25T03:26:28.854Z,92.55
2017-10-25T03:28:56.526Z,92.60
2017-10-25T03:31:24.238Z,93.14
2017-10-25T03:33:51.972Z,93.01
2017-10-25T03:36:19.652Z,92.64
2017-10-25T03:38:47.461Z,92.34
2017-10-25T03:41:15.513Z,92.49
2017-10-25T03:43:43.310Z,92.60
2017-10-25T03:46:11.058Z,92.27
2017-10-25T03:48:38.771Z,92.18
2017-10-25T03:51:06.489Z,92.97
2017-10-25T03:53:34.186Z,92.99
2017-10-25T03:56:01.910Z,93.20
2017-10-25T03:58:29.603Z,93.45
2017-10-25T04:00:57.404Z,93.34
2017-10-25T04:03:25.094Z,93.26
2017-10-25T04:05:52.766Z,93.99
2017-10-25T04:08:20.504Z,94.01
2017-10-25T04:10:48.398Z,93.70
2017-10-25T04:13:16.078Z,93.77
2017-10-25T04:15:43.821Z,93.85
2017-10-25T04:18:12.310Z,93.49
2017-10-25T04:20:40.032Z,93.29
2017-10-25T04:23:07.717Z,93.32
2017-10-25T04:25:36.401Z,93.07
2017-10-25T04:28:04.106Z,93.37
2017-10-25T04:30:31.843Z,93.80
2017-10-25T04:32:59.526Z,93.85
2017-10-25T04:35:27.313Z,94.14
2017-10-25T04:37:55.011Z,94.17
2017-10-25T04:40:22.719Z,94.25
2017-10-25T04:42:50.530Z,93.80
2017-10-25T04:45:24.953Z,93.63
2017-10-25T04:47:52.679Z,93.53
2017-10-25T04:50:21.438Z,93.67
2017-10-25T04:52:49.399Z,93.97
2017-10-25T04:55:17.086Z,93.95
2017-10-25T04:57:44.837Z,94.09
2017-10-25T05:00:12.668Z,93.76
2017-10-25T05:02:40.365Z,93.58
2017-10-25T05:05:08.066Z,93.47
2017-10-25T05:07:35.851Z,93.65
2017-10-25T05:10:03.571Z,93.81
2017-10-25T05:12:31.268Z,93.74
2017-10-25T05:14:59.220Z,93.82
2017-10-25T05:17:29.195Z,93.59
2017-10-25T05:19:56.881Z,94.01
2017-10-25T05:22:24.627Z,93.74
2017-10-25T05:24:52.353Z,93.64
2017-10-25T05:27:20.062Z,93.76
2017-10-25T05:29:47.834Z,93.61
2017-10-25T05:32:15.519Z,93.36
2017-10-25T05:34:43.275Z,93.32
2017-10-25T05:37:11.034Z,93.19
2017-10-25T05:39:38.981Z,93.07
2017-10-25T05:42:06.703Z,93.34
2017-10-25T05:44:34.410Z,93.54
2017-10-25T05:47:02.195Z,93.30
2017-10-25T05:49:30.020Z,93.54
2017-10-25T05:51:57.722Z,93.43
2017-10-25T05:54:25.505Z,93.14
2017-10-25T05:56:53.295Z,93.12
2017-10-25T05:59:21.061Z,93.24
2017-10-25T06:01:48.844Z,93.26
2017-10-25T06:04:16.577Z,93.11
2017-10-25T06:06:44.256Z,93.41
2017-10-25T06:09:11.988Z,93.34
2017-10-25T06:11:39.778Z,93.06
2017-10-25T06:14:07.783Z,92.88
2017-10-25T06:16:35.896Z,92.64
2017-10-25T06:19:03.683Z,92.42
2017-10-25T06:21:31.498Z,92.62
2017-10-25T06:23:59.297Z,92.82
2017-10-25T06:26:28.068Z,92.83
2017-10-25T06:28:56.346Z,92.94
2017-10-25T06:31:24.048Z,93.04
2017-10-25T06:33:51.804Z,92.68
2017-10-25T06:36:19.638Z,92.80
2017-10-25T06:38:47.384Z,92.79
2017-10-25T06:41:15.879Z,92.83
2017-10-25T06:43:43.657Z,92.91
2017-10-25T06:46:11.707Z,92.50
2017-10-25T06:48:39.507Z,92.53
2017-10-25T06:51:09.080Z,92.65
2017-10-25T06:53:36.898Z,92.76
2017-10-25T06:56:05.096Z,92.71
2017-10-25T06:58:32.785Z,92.83
2017-10-25T07:01:00.497Z,93.31
2017-10-25T07:03:28.209Z,93.37
2017-10-25T07:05:55.967Z,93.45
2017-10-25T07:08:23.715Z,93.26
2017-10-25T07:10:51.465Z,92.85
2017-10-25T07:13:20.173Z,92.37
2017-10-25T07:15:47.890Z,92.20
2017-10-25T07:18:15.633Z,92.54
2017-10-25T07:20:44.268Z,92.29
2017-10-25T07:23:11.970Z,92.18
2017-10-25T07:25:39.705Z,92.26
2017-10-25T07:28:07.474Z,91.30
2017-10-25T07:30:35.219Z,91.25
2017-10-25T07:33:02.948Z,91.19
2017-10-25T07:35:30.697Z,90.63
2017-10-25T07:37:58.445Z,89.71
2017-10-25T07:40:26.210Z,88.62
2017-10-25T07:42:54.795Z,88.30
2017-10-25T07:45:22.564Z,85.80
2017-10-25T07:47:50.260Z,85.44
2017-10-25T07:50:19.144Z,83.91
2017-10-25T07:52:46.976Z,84.82
2017-10-25T07:55:15.660Z,84.69
2017-10-25T07:57:44.087Z,83.81
2017-10-25T08:00:12.059Z,85.62
2017-10-25T08:02:40.150Z,83.20
2017-10-25T08:05:07.857Z,81.20
2017-10-25T08:07:36.730Z,82.01
2017-10-25T08:10:04.490Z,81.27
2017-10-25T08:12:32.267Z,83.61
2017-10-25T08:14:59.992Z,83.64
2017-10-25T08:17:27.748Z,83.83
2017-10-25T08:19:56.043Z,82.11
2017-10-25T08:22:23.777Z,79.55
2017-10-25T08:24:51.555Z,80.67
2017-10-25T08:27:19.268Z,79.10
2017-10-25T08:29:48.067Z,79.00
2017-10-25T08:32:16.209Z,79.52
2017-10-25T08:34:43.938Z,77.11
2017-10-25T08:37:11.697Z,73.79
2017-10-25T08:39:39.482Z,74.79
2017-10-25T08:42:07.290Z,75.11
2017-10-25T08:44:35.698Z,73.81
2017-10-25T08:47:04.325Z,75.84
2017-10-25T08:49:32.152Z,74.53
2017-10-25T08:51:59.936Z,73.99
2017-10-25T08:54:27.680Z,74.18
2017-10-25T08:56:55.635Z,74.79
2017-10-25T08:59:25.201Z,72.28
2017-10-25T09:01:52.940Z,73.31
2017-10-25T09:04:21.881Z,70.34
2017-10-25T09:06:49.671Z,69.97
2017-10-25T09:09:17.517Z,70.22
2017-10-25T09:11:46.146Z,69.99
2017-10-25T09:14:15.708Z,70.74
2017-10-25T09:16:43.437Z,70.23
2017-10-25T09:19:11.152Z,70.16
2017-10-25T09:21:38.901Z,69.55
2017-10-25T09:24:06.622Z,68.54
2017-10-25T09:26:34.321Z,66.65
2017-10-25T09:29:02.075Z,67.33
2017-10-25T09:31:29.815Z,67.71
2017-10-25T09:33:57.623Z,70.12
2017-10-25T09:36:25.394Z,68.98
2017-10-25T09:38:53.100Z,70.16
2017-10-25T09:41:20.815Z,69.65
2017-10-25T09:43:48.583Z,71.35
2017-10-25T09:46:27.152Z,70.86
2017-10-25T09:48:54.900Z,70.65
2017-10-25T09:51:22.641Z,68.89
2017-10-25T09:53:50.365Z,69.38
2017-10-25T09:56:18.149Z,69.76
2017-10-25T09:58:46.654Z,71.16
2017-10-25T10:01:15.213Z,70.80
2017-10-25T10:03:42.957Z,68.70
2017-10-25T10:06:12.468Z,70.44
2017-10-25T10:08:40.248Z,69.22
2017-10-25T10:11:10.526Z,70.36
2017-10-25T10:13:38.270Z,67.75
2017-10-25T10:16:06.022Z,68.51
2017-10-25T10:18:33.723Z,68.65
2017-10-25T10:21:02.600Z,68.02
2017-10-25T10:23:31.219Z,67.76
2017-10-25T10:25:59.751Z,66.63
2017-10-25T10:28:27.505Z,65.87
2017-10-25T10:30:55.353Z,65.74
2017-10-25T10:33:23.089Z,64.28
2017-10-25T10:35:50.934Z,65.73
2017-10-25T10:38:18.703Z,65.55
2017-10-25T10:40:47.353Z,65.53
2017-10-25T10:43:16.067Z,63.92
2017-10-25T10:45:46.189Z,64.18
2017-10-25T10:48:13.955Z,63.10
2017-10-25T10:50:42.261Z,63.37
2017-10-25T10:53:09.976Z,63.58
2017-10-25T10:55:37.911Z,63.50
2017-10-25T10:58:05.742Z,62.57
2017-10-25T11:00:33.530Z,63.80
2017-10-25T11:03:01.343Z,62.26
2017-10-25T11:07:57.064Z,62.92
2017-10-25T11:10:24.924Z,62.34
2017-10-25T11:12:52.627Z,62.29
2017-10-25T11:15:20.413Z,60.68
2017-10-25T11:17:48.134Z,60.76
2017-10-25T11:20:15.889Z,60.15
2017-10-25T11:22:43.674Z,63.29
2017-10-25T11:25:11.482Z,61.83
2017-10-25T11:27:39.235Z,62.67
2017-10-25T11:30:07.003Z,61.28
2017-10-25T11:32:34.853Z,63.50
2017-10-25T11:35:02.643Z,64.07
2017-10-25T11:37:30.416Z,63.50
2017-10-25T11:39:58.135Z,64.50
2017-10-25T11:42:25.883Z,63.01
2017-10-25T11:44:53.691Z,63.98
2017-10-25T11:47:21.420Z,64.13
2017-10-25T11:49:49.348Z,64.80
2017-10-25T11:52:17.428Z,63.66
2017-10-25T11:54:45.184Z,62.80
2017-10-25T11:57:12.926Z,65.24
2017-10-25T11:59:42.005Z,65.28
2017-10-25T12:02:09.750Z,63.31
2017-10-25T12:04:37.558Z,62.42
2017-10-25T12:07:05.272Z,62.51
2017-10-25T12:09:33.017Z,63.62
2017-10-25T12:12:00.795Z,62.92
2017-10-25T12:14:28.562Z,63.96
2017-10-25T12:16:57.000Z,62.47
2017-10-25T12:19:24.742Z,62.97
2017-10-25T12:21:52.766Z,61.41
2017-10-25T12:24:20.515Z,59.41
2017-10-25T12:26:48.210Z,60.16
2017-10-25T12:29:15.997Z,59.58
2017-10-25T12:31:43.744Z,62.92
2017-10-25T12:34:11.483Z,60.68
2017-10-25T12:36:39.261Z,60.79
2017-10-25T12:39:06.998Z,59.64
2017-10-25T12:41:34.723Z,59.01
2017-10-25T12:44:02.476Z,61.81
2017-10-25T12:46:30.185Z,61.65
2017-10-25T12:48:58.950Z,60.79
2017-10-25T12:51:26.705Z,62.10
2017-10-25T12:53:54.453Z,62.49
2017-10-25T12:56:22.234Z,62.62
2017-10-25T12:58:50.005Z,63.39
2017-10-25T13:01:18.722Z,62.46
2017-10-25T13:03:46.413Z,64.16
2017-10-25T13:06:14.134Z,62.61
2017-10-25T13:08:41.901Z,62.52
2017-10-25T13:14:57.848Z,62.54
2017-10-25T13:17:41.823Z,62.56
2017-10-25T13:20:09.597Z,64.14
2017-10-25T13:22:37.316Z,63.70
2017-10-25T13:25:05.167Z,64.99
2017-10-25T13:27:33.400Z,65.88
2017-10-25T13:30:01.141Z,66.64
2017-10-25T13:32:28.861Z,69.15
2017-10-25T13:34:56.609Z,69.46
2017-10-25T13:37:24.385Z,69.01
2017-10-25T13:39:52.168Z,69.67
2017-10-25T13:42:19.931Z,70.57
2017-10-25T13:44:47.609Z,70.57
2017-10-25T13:47:15.356Z,72.41
2017-10-25T13:49:43.112Z,71.24
2017-10-25T13:52:10.843Z,70.94
2017-10-25T13:54:38.618Z,72.10
2017-10-25T13:57:06.397Z,71.00
2017-10-25T13:59:34.170Z,69.50
2017-10-25T14:02:01.940Z,69.37
2017-10-25T14:04:29.796Z,69.44
2017-10-25T14:06:57.602Z,70.87
2017-10-25T14:09:25.442Z,72.38
2017-10-25T14:11:53.312Z,71.00
2017-10-25T14:14:21.635Z,70.19
2017-10-25T14:16:49.440Z,69.53
2017-10-25T14:19:17.720Z,69.83
2017-10-25T14:21:45.692Z,71.78
2017-10-25T14:24:13.488Z,73.50
2017-10-25T14:26:52.819Z,74.34
2017-10-25T14:29:20.568Z,74.82
2017-10-25T14:31:48.441Z,74.02
2017-10-25T14:34:16.198Z,75.39
2017-10-25T14:36:43.946Z,76.19
2017-10-25T14:39:11.832Z,76.80
2017-10-25T14:41:39.636Z,77.30
2017-10-25T14:44:07.387Z,76.91
2017-10-25T14:46:35.252Z,75.99
2017-10-25T14:49:03.094Z,75.08
2017-10-25T14:51:32.108Z,75.49
2017-10-25T14:53:59.830Z,75.82
2017-10-25T14:56:27.618Z,76.66
2017-10-25T14:58:55.406Z,77.09
2017-10-25T15:01:23.134Z,77.22
2017-10-25T15:03:50.941Z,76.51
2017-10-25T15:06:19.697Z,77.14
2017-10-25T15:08:47.521Z,77.65
2017-10-25T15:11:15.367Z,78.67
2017-10-25T15:13:43.421Z,78.79
2017-10-25T15:16:11.476Z,78.64
2017-10-25T15:18:39.350Z,79.79
2017-10-25T15:21:07.112Z,80.68
2017-10-25T15:23:34.862Z,81.01
2017-10-25T15:26:02.745Z,80.42
2017-10-25T15:28:30.527Z,80.31
2017-10-25T15:30:58.674Z,80.17
2017-10-25T15:33:26.466Z,80.86
2017-10-25T15:35:55.054Z,80.86
2017-10-25T15:38:22.790Z,81.63
2017-10-25T15:40:50.499Z,82.09
2017-10-25T15:43:18.326Z,80.53
2017-10-25T15:45:46.120Z,81.45
2017-10-25T15:48:14.987Z,81.31
2017-10-25T15:50:42.778Z,81.77
2017-10-25T15:53:11.351Z,81.83
2017-10-25T15:55:39.160Z,82.37
2017-10-25T15:58:08.001Z,82.45
2017-10-25T16:00:35.773Z,81.94
2017-10-25T16:03:03.569Z,81.21
2017-10-25T16:05:31.317Z,81.90
2017-10-25T16:07:59.083Z,82.32
2017-10-25T16:10:26.936Z,82.22
2017-10-25T16:12:54.751Z,81.61
2017-10-25T16:15:22.507Z,82.65
2017-10-25T16:17:50.236Z,83.39
2017-10-25T16:20:18.080Z,83.34
2017-10-25T16:22:46.801Z,83.65
2017-10-25T16:25:15.128Z,82.64
2017-10-25T16:27:43.080Z,82.47
2017-10-25T16:30:10.898Z,84.04
2017-10-25T16:32:38.793Z,83.71
2017-10-25T16:35:07.767Z,83.19
2017-10-25T16:37:35.690Z,83.80
2017-10-25T16:40:03.494Z,83.26
2017-10-25T16:42:31.271Z,83.62
2017-10-25T16:44:59.028Z,85.27
2017-10-25T16:47:26.840Z,83.92
2017-10-25T16:49:54.587Z,84.71
2017-10-25T16:52:22.424Z,84.18
2017-10-25T16:54:50.193Z,84.61
2017-10-25T16:57:18.021Z,84.51
2017-10-25T16:59:45.795Z,84.94
2017-10-25T17:02:13.729Z,85.88
2017-10-25T17:04:41.541Z,85.13
2017-10-25T17:07:09.353Z,84.66
2017-10-25T17:09:37.143Z,85.54
2017-10-25T17:12:05.019Z,85.41
2017-10-25T17:14:32.804Z,85.66
2017-10-25T17:17:00.678Z,85.78
2017-10-25T17:19:28.485Z,85.53
2017-10-25T17:21:57.609Z,85.56
2017-10-25T17:24:25.403Z,85.60
2017-10-25T17:26:53.569Z,86.51
2017-10-25T17:29:21.418Z,86.13
2017-10-25T17:31:51.354Z,86.40
2017-10-25T17:34:19.206Z,86.56
2017-10-25T17:36:47.063Z,86.80
2017-10-25T17:39:15.740Z,86.97
2017-10-25T17:41:43.560Z,87.39
2017-10-25T17:44:11.408Z,86.42
2017-10-25T17:46:39.771Z,86.77
2017-10-25T17:49:07.828Z,87.41
2017-10-25T17:51:35.651Z,86.74
2017-10-25T17:54:03.425Z,87.49
2017-10-25T17:56:31.223Z,86.96
2017-10-25T17:58:59.051Z,87.24
2017-10-25T18:01:26.987Z,87.81
2017-10-25T18:03:55.914Z,88.11
2017-10-25T18:06:23.726Z,87.87
2017-10-25T18:08:51.696Z,88.52
2017-10-25T18:11:19.719Z,87.78
2017-10-25T18:13:47.528Z,87.25
2017-10-25T18:16:16.443Z,87.27
2017-10-25T18:18:44.280Z,87.21
2017-10-25T18:21:12.439Z,87.99
2017-10-25T18:23:41.297Z,87.17
2017-10-25T18:26:09.120Z,86.78
2017-10-25T18:28:37.046Z,86.76
2017-10-25T18:31:06.204Z,87.42
2017-10-25T18:33:37.674Z,88.04
2017-10-25T18:36:05.454Z,88.22
2017-10-25T18:38:36.974Z,88.23
2017-10-25T18:41:04.814Z,88.33
2017-10-25T18:43:34.870Z,88.05
2017-10-25T18:46:03.242Z,88.57
2017-10-25T18:48:32.509Z,90.16
2017-10-25T18:51:00.321Z,89.27
2017-10-25T18:53:31.074Z,89.22
2017-10-25T18:55:58.975Z,89.91
2017-10-25T18:58:27.650Z,89.90
2017-10-25T19:00:57.078Z,90.45
2017-10-25T19:03:25.567Z,90.33
2017-10-25T19:05:54.388Z,89.51
2017-10-25T19:08:22.211Z,89.77
2017-10-25T19:10:52.265Z,89.77
2017-10-25T19:13:21.078Z,89.86
2017-10-25T19:15:48.901Z,89.62
2017-10-25T19:18:17.989Z,89.36
2017-10-25T19:20:45.960Z,89.85
2017-10-25T19:23:15.169Z,90.66
2017-10-25T19:25:43.520Z,90.19
2017-10-25T19:28:12.441Z,89.65
2017-10-25T19:30:41.238Z,89.87
2017-10-25T19:33:08.971Z,89.57
2017-10-25T19:35:36.844Z,89.06
2017-10-25T19:38:08.738Z,89.61
2017-10-25T19:40:41.778Z,89.71
2017-10-25T19:43:10.684Z,90.43
2017-10-25T19:45:39.847Z,90.18
2017-10-25T19:48:09.480Z,90.55
2017-10-25T19:50:41.978Z,90.54
2017-10-25T19:53:10.840Z,90.06
2017-10-25T19:55:38.690Z,90.30
2017-10-25T19:58:08.349Z,90.23
2017-10-25T20:00:40.017Z,89.51
2017-10-25T20:03:12.799Z,89.63
2017-10-25T20:05:40.661Z,89.73
2017-10-25T20:08:09.269Z,89.76
2017-10-25T20:10:38.644Z,89.68
2017-10-25T20:13:08.215Z,89.64
2017-10-25T20:15:36.678Z,89.63
2017-10-25T20:18:05.605Z,90.07
2017-10-25T20:20:33.357Z,90.77
2017-10-25T20:23:03.187Z,90.57
2017-10-25T20:25:36.258Z,90.56
2017-10-25T20:28:04.971Z,90.07
2017-10-25T20:30:32.724Z,91.05
2017-10-25T20:33:01.419Z,90.99
2017-10-25T20:35:30.798Z,90.79
2017-10-25T20:37:58.693Z,91.00
2017-10-25T20:40:27.039Z,91.34
2017-10-25T20:42:54.787Z,90.77
2017-10-25T20:45:24.481Z,90.85
2017-10-25T20:47:53.019Z,90.31
2017-10-25T20:50:21.615Z,89.55
2017-10-25T20:52:49.968Z,90.04
2017-10-25T20:55:18.741Z,90.35
2017-10-25T20:57:47.568Z,90.61
2017-10-25T21:00:16.947Z,90.64
2017-10-25T21:02:48.379Z,90.52
2017-10-25T21:05:16.954Z,89.90
2017-10-25T21:07:50.254Z,89.82
2017-10-25T21:10:18.093Z,89.85
2017-10-25T21:12:45.863Z,90.13
2017-10-25T21:15:14.077Z,90.43
2017-10-25T21:17:41.870Z,90.41
2017-10-25T21:20:09.914Z,90.16
2017-10-25T21:22:38.132Z,90.20
2017-10-25T21:25:05.959Z,90.31
2017-10-25T21:27:33.677Z,90.60
2017-10-25T21:30:01.506Z,90.88
2017-10-25T21:32:29.286Z,91.02
2017-10-25T21:34:57.026Z,90.95
2017-10-25T21:37:24.840Z,91.12
2017-10-25T21:39:52.585Z,91.76
2017-10-25T21:42:20.353Z,90.85
2017-10-25T21:44:48.136Z,90.69
2017-10-25T21:47:17.098Z,90.75
2017-10-25T21:49:44.808Z,90.30
2017-10-25T21:52:12.517Z,90.49
2017-10-25T21:54:40.293Z,90.47
2017-10-25T21:57:07.992Z,90.18
2017-10-25T21:59:35.780Z,90.13
2017-10-25T22:02:03.567Z,90.75
2017-10-25T22:04:31.373Z,90.57
2017-10-25T22:06:59.113Z,90.59
2017-10-25T22:09:26.922Z,90.86
2017-10-25T22:11:55.548Z,91.47
2017-10-25T22:14:23.251Z,91.66
2017-10-25T22:16:50.953Z,91.10
2017-10-25T22:19:18.679Z,90.69
2017-10-25T22:21:46.436Z,90.99
2017-10-25T22:24:14.198Z,90.82
2017-10-25T22:26:41.900Z,90.63
2017-10-25T22:29:09.608Z,91.19
2017-10-25T22:31:37.391Z,90.70
2017-10-25T22:34:05.177Z,90.38
2017-10-25T22:36:33.305Z,91.18
2017-10-25T22:39:01.878Z,90.63
2017-10-25T22:41:29.955Z,90.57
2017-10-25T22:43:57.731Z,90.93
2017-10-25T22:46:25.479Z,90.25
2017-10-25T22:48:53.371Z,90.30
2017-10-25T22:51:21.480Z,90.54
2017-10-25T22:53:50.128Z,90.70
2017-10-25T22:56:18.002Z,91.00
2017-10-25T22:58:45.696Z,91.01
2017-10-25T23:01:13.389Z,91.03
2017-10-25T23:03:42.132Z,90.34
2017-10-25T23:06:10.071Z,90.54
2017-10-25T23:08:37.762Z,91.12
2017-10-25T23:11:05.491Z,91.02
2017-10-25T23:13:33.241Z,91.33
2017-10-25T23:16:01.061Z,91.03
2017-10-25T23:18:28.819Z,90.38
2017-10-25T23:20:56.626Z,90.46
2017-10-25T23:23:24.339Z,90.45
2017-10-25T23:25:52.172Z,90.27
2017-10-25T23:28:20.248Z,90.23
2017-10-25T23:30:47.952Z,90.59
2017-10-25T23:33:15.687Z,91.07
2017-10-25T23:35:44.551Z,90.90
2017-10-25T23:38:12.264Z,91.53
2017-10-25T23:40:40.028Z,91.88
2017-10-25T23:43:07.807Z,91.63
2017-10-25T23:45:35.571Z,92.27
2017-10-25T23:48:03.302Z,92.11
2017-10-25T23:50:31.044Z,92.04
2017-10-25T23:52:58.751Z,91.71
2017-10-25T23:55:26.533Z,92.50
2017-10-25T23:57:54.195Z,92.68
